sensor_id;sensor_type;location;lat;lon;timestamp;P1;durP1;ratioP1;P2;durP2;ratioP2
38053;SDS011;23859;50.672;7.164;2022-09-09T00:04:40;4.20;;;1.15;;
38053;SDS011;23859;50.672;7.164;2022-09-09T00:12:18;2.63;;;1.38;;
38053;SDS011;23859;50.672;7.164;2022-09-09T00:14:51;4.68;;;1.05;;
38053;SDS011;23859;50.672;7.164;2022-09-09T00:20:02;2.03;;;1.10;;
38053;SDS011;23859;50.672;7.164;2022-09-09T00:22:35;4.85;;;1.38;;
38053;SDS011;23859;50.672;7.164;2022-09-09T00:25:11;4.60;;;1.48;;
38053;SDS011;23859;50.672;7.164;2022-09-09T00:27:47;4.07;;;1.20;;
38053;SDS011;23859;50.672;7.164;2022-09-09T00:32:47;3.40;;;1.38;;
38053;SDS011;23859;50.672;7.164;2022-09-09T00:35:31;5.95;;;1.08;;
38053;SDS011;23859;50.672;7.164;2022-09-09T00:38:03;4.05;;;1.95;;
38053;SDS011;23859;50.672;7.164;2022-09-09T00:40:50;7.35;;;1.30;;
38053;SDS011;23859;50.672;7.164;2022-09-09T00:43:24;4.45;;;1.73;;
38053;SDS011;23859;50.672;7.164;2022-09-09T00:51:23;3.45;;;1.33;;
38053;SDS011;23859;50.672;7.164;2022-09-09T00:54:14;6.28;;;1.92;;
38053;SDS011;23859;50.672;7.164;2022-09-09T00:59:48;3.83;;;1.35;;
38053;SDS011;23859;50.672;7.164;2022-09-09T01:02:26;4.10;;;1.50;;
38053;SDS011;23859;50.672;7.164;2022-09-09T01:05:00;3.65;;;1.20;;
38053;SDS011;23859;50.672;7.164;2022-09-09T01:07:37;4.35;;;1.30;;
38053;SDS011;23859;50.672;7.164;2022-09-09T01:10:06;2.75;;;1.58;;
38053;SDS011;23859;50.672;7.164;2022-09-09T01:12:42;10.73;;;1.80;;
38053;SDS011;23859;50.672;7.164;2022-09-09T01:15:12;7.13;;;1.60;;
38053;SDS011;23859;50.672;7.164;2022-09-09T01:18:05;5.50;;;1.77;;
38053;SDS011;23859;50.672;7.164;2022-09-09T01:20:51;9.60;;;2.10;;
38053;SDS011;23859;50.672;7.164;2022-09-09T01:23:38;3.95;;;1.27;;
38053;SDS011;23859;50.672;7.164;2022-09-09T01:26:10;4.35;;;1.70;;
38053;SDS011;23859;50.672;7.164;2022-09-09T01:28:42;3.47;;;1.83;;
38053;SDS011;23859;50.672;7.164;2022-09-09T01:31:11;5.72;;;1.63;;
38053;SDS011;23859;50.672;7.164;2022-09-09T01:33:45;6.30;;;1.50;;
38053;SDS011;23859;50.672;7.164;2022-09-09T01:39:00;3.92;;;1.17;;
38053;SDS011;23859;50.672;7.164;2022-09-09T01:41:26;2.80;;;1.50;;
38053;SDS011;23859;50.672;7.164;2022-09-09T01:43:53;7.30;;;1.77;;
38053;SDS011;23859;50.672;7.164;2022-09-09T01:46:21;4.65;;;1.38;;
38053;SDS011;23859;50.672;7.164;2022-09-09T01:48:48;3.33;;;1.60;;
38053;SDS011;23859;50.672;7.164;2022-09-09T01:51:16;2.45;;;0.95;;
38053;SDS011;23859;50.672;7.164;2022-09-09T01:53:42;3.28;;;1.35;;
38053;SDS011;23859;50.672;7.164;2022-09-09T01:56:19;3.35;;;1.20;;
38053;SDS011;23859;50.672;7.164;2022-09-09T02:01:54;3.20;;;1.73;;
38053;SDS011;23859;50.672;7.164;2022-09-09T02:04:36;7.72;;;1.38;;
38053;SDS011;23859;50.672;7.164;2022-09-09T02:07:11;5.53;;;1.30;;
38053;SDS011;23859;50.672;7.164;2022-09-09T02:09:58;5.88;;;1.50;;
38053;SDS011;23859;50.672;7.164;2022-09-09T02:12:49;7.15;;;1.38;;
38053;SDS011;23859;50.672;7.164;2022-09-09T02:15:28;3.85;;;0.98;;
38053;SDS011;23859;50.672;7.164;2022-09-09T02:18:00;4.78;;;0.93;;
38053;SDS011;23859;50.672;7.164;2022-09-09T02:20:32;2.03;;;1.00;;
38053;SDS011;23859;50.672;7.164;2022-09-09T02:23:01;4.18;;;1.20;;
38053;SDS011;23859;50.672;7.164;2022-09-09T02:25:28;2.55;;;0.90;;
38053;SDS011;23859;50.672;7.164;2022-09-09T02:27:55;4.22;;;1.13;;
38053;SDS011;23859;50.672;7.164;2022-09-09T02:30:25;8.27;;;1.23;;
38053;SDS011;23859;50.672;7.164;2022-09-09T02:32:54;8.73;;;1.27;;
38053;SDS011;23859;50.672;7.164;2022-09-09T02:35:24;5.68;;;1.25;;
38053;SDS011;23859;50.672;7.164;2022-09-09T02:37:53;3.67;;;1.15;;
38053;SDS011;23859;50.672;7.164;2022-09-09T02:40:24;4.35;;;1.00;;
38053;SDS011;23859;50.672;7.164;2022-09-09T02:42:50;4.38;;;1.50;;
38053;SDS011;23859;50.672;7.164;2022-09-09T02:45:19;5.93;;;1.52;;
38053;SDS011;23859;50.672;7.164;2022-09-09T02:50:35;3.10;;;1.20;;
38053;SDS011;23859;50.672;7.164;2022-09-09T02:53:18;3.53;;;1.58;;
38053;SDS011;23859;50.672;7.164;2022-09-09T02:56:02;5.70;;;1.60;;
38053;SDS011;23859;50.672;7.164;2022-09-09T02:58:34;3.67;;;1.45;;
38053;SDS011;23859;50.672;7.164;2022-09-09T03:01:01;5.38;;;1.17;;
38053;SDS011;23859;50.672;7.164;2022-09-09T03:03:28;4.88;;;1.48;;
38053;SDS011;23859;50.672;7.164;2022-09-09T03:05:55;7.70;;;1.48;;
38053;SDS011;23859;50.672;7.164;2022-09-09T03:08:21;4.25;;;1.48;;
38053;SDS011;23859;50.672;7.164;2022-09-09T03:10:48;4.32;;;1.33;;
38053;SDS011;23859;50.672;7.164;2022-09-09T03:13:14;4.75;;;1.35;;
38053;SDS011;23859;50.672;7.164;2022-09-09T03:15:41;5.00;;;1.58;;
38053;SDS011;23859;50.672;7.164;2022-09-09T03:18:08;4.47;;;1.60;;
38053;SDS011;23859;50.672;7.164;2022-09-09T03:20:34;4.47;;;1.40;;
38053;SDS011;23859;50.672;7.164;2022-09-09T03:23:00;3.92;;;1.38;;
38053;SDS011;23859;50.672;7.164;2022-09-09T03:25:27;3.97;;;1.48;;
38053;SDS011;23859;50.672;7.164;2022-09-09T03:27:54;8.60;;;1.58;;
38053;SDS011;23859;50.672;7.164;2022-09-09T03:30:21;5.57;;;1.42;;
38053;SDS011;23859;50.672;7.164;2022-09-09T03:32:47;2.55;;;1.02;;
38053;SDS011;23859;50.672;7.164;2022-09-09T03:35:13;4.22;;;1.20;;
38053;SDS011;23859;50.672;7.164;2022-09-09T03:37:40;4.35;;;1.63;;
38053;SDS011;23859;50.672;7.164;2022-09-09T03:40:07;4.88;;;1.48;;
38053;SDS011;23859;50.672;7.164;2022-09-09T03:42:34;4.72;;;1.27;;
38053;SDS011;23859;50.672;7.164;2022-09-09T03:45:02;5.05;;;1.85;;
38053;SDS011;23859;50.672;7.164;2022-09-09T03:47:30;8.57;;;1.30;;
38053;SDS011;23859;50.672;7.164;2022-09-09T03:49:56;6.25;;;2.05;;
38053;SDS011;23859;50.672;7.164;2022-09-09T03:52:22;6.28;;;1.70;;
38053;SDS011;23859;50.672;7.164;2022-09-09T03:54:50;4.80;;;1.38;;
38053;SDS011;23859;50.672;7.164;2022-09-09T03:57:16;3.13;;;1.45;;
38053;SDS011;23859;50.672;7.164;2022-09-09T03:59:42;6.47;;;1.33;;
38053;SDS011;23859;50.672;7.164;2022-09-09T04:02:09;4.22;;;1.55;;
38053;SDS011;23859;50.672;7.164;2022-09-09T04:04:35;6.50;;;1.60;;
38053;SDS011;23859;50.672;7.164;2022-09-09T04:07:01;2.97;;;1.38;;
38053;SDS011;23859;50.672;7.164;2022-09-09T04:09:27;2.15;;;1.40;;
38053;SDS011;23859;50.672;7.164;2022-09-09T04:11:53;9.23;;;1.65;;
38053;SDS011;23859;50.672;7.164;2022-09-09T04:14:20;9.57;;;2.13;;
38053;SDS011;23859;50.672;7.164;2022-09-09T04:16:47;5.88;;;1.88;;
38053;SDS011;23859;50.672;7.164;2022-09-09T04:19:13;5.72;;;1.98;;
38053;SDS011;23859;50.672;7.164;2022-09-09T04:21:39;6.47;;;1.67;;
38053;SDS011;23859;50.672;7.164;2022-09-09T04:24:07;11.52;;;2.08;;
38053;SDS011;23859;50.672;7.164;2022-09-09T04:26:34;9.70;;;2.08;;
38053;SDS011;23859;50.672;7.164;2022-09-09T04:29:01;12.05;;;1.80;;
38053;SDS011;23859;50.672;7.164;2022-09-09T04:31:28;6.03;;;1.90;;
38053;SDS011;23859;50.672;7.164;2022-09-09T04:33:55;7.60;;;1.90;;
38053;SDS011;23859;50.672;7.164;2022-09-09T04:36:21;5.47;;;1.70;;
38053;SDS011;23859;50.672;7.164;2022-09-09T04:38:47;7.15;;;1.80;;
38053;SDS011;23859;50.672;7.164;2022-09-09T04:41:14;6.25;;;1.52;;
38053;SDS011;23859;50.672;7.164;2022-09-09T04:43:41;3.50;;;1.98;;
38053;SDS011;23859;50.672;7.164;2022-09-09T04:46:08;5.47;;;1.92;;
38053;SDS011;23859;50.672;7.164;2022-09-09T04:48:34;7.57;;;1.60;;
38053;SDS011;23859;50.672;7.164;2022-09-09T04:51:01;8.68;;;1.80;;
38053;SDS011;23859;50.672;7.164;2022-09-09T04:53:30;4.78;;;1.65;;
38053;SDS011;23859;50.672;7.164;2022-09-09T04:58:30;11.15;;;2.10;;
38053;SDS011;23859;50.672;7.164;2022-09-09T05:01:10;11.13;;;2.35;;
38053;SDS011;23859;50.672;7.164;2022-09-09T05:03:38;6.05;;;2.03;;
38053;SDS011;23859;50.672;7.164;2022-09-09T05:06:08;7.05;;;2.33;;
38053;SDS011;23859;50.672;7.164;2022-09-09T05:08:36;8.18;;;2.03;;
38053;SDS011;23859;50.672;7.164;2022-09-09T05:11:03;5.22;;;1.65;;
38053;SDS011;23859;50.672;7.164;2022-09-09T05:13:38;6.88;;;1.98;;
38053;SDS011;23859;50.672;7.164;2022-09-09T05:16:05;8.93;;;2.17;;
38053;SDS011;23859;50.672;7.164;2022-09-09T05:18:31;7.78;;;1.88;;
38053;SDS011;23859;50.672;7.164;2022-09-09T05:21:00;5.18;;;2.08;;
38053;SDS011;23859;50.672;7.164;2022-09-09T05:23:26;7.25;;;1.80;;
38053;SDS011;23859;50.672;7.164;2022-09-09T05:25:56;5.13;;;1.70;;
38053;SDS011;23859;50.672;7.164;2022-09-09T05:28:23;5.90;;;1.77;;
38053;SDS011;23859;50.672;7.164;2022-09-09T05:31:00;7.97;;;2.53;;
38053;SDS011;23859;50.672;7.164;2022-09-09T05:33:33;1.90;;;1.40;;
38053;SDS011;23859;50.672;7.164;2022-09-09T05:36:01;6.07;;;1.83;;
38053;SDS011;23859;50.672;7.164;2022-09-09T05:38:30;6.30;;;2.22;;
38053;SDS011;23859;50.672;7.164;2022-09-09T05:40:57;14.77;;;3.85;;
38053;SDS011;23859;50.672;7.164;2022-09-09T05:43:25;9.57;;;2.55;;
38053;SDS011;23859;50.672;7.164;2022-09-09T05:46:11;6.18;;;1.70;;
38053;SDS011;23859;50.672;7.164;2022-09-09T05:48:42;7.75;;;1.75;;
38053;SDS011;23859;50.672;7.164;2022-09-09T05:51:12;5.43;;;1.67;;
38053;SDS011;23859;50.672;7.164;2022-09-09T05:53:42;5.90;;;1.92;;
38053;SDS011;23859;50.672;7.164;2022-09-09T05:56:16;5.10;;;1.80;;
38053;SDS011;23859;50.672;7.164;2022-09-09T05:58:44;4.28;;;2.22;;
38053;SDS011;23859;50.672;7.164;2022-09-09T06:01:15;7.82;;;1.83;;
38053;SDS011;23859;50.672;7.164;2022-09-09T06:03:43;5.85;;;1.80;;
38053;SDS011;23859;50.672;7.164;2022-09-09T06:06:11;6.15;;;1.65;;
38053;SDS011;23859;50.672;7.164;2022-09-09T06:08:40;7.93;;;1.83;;
38053;SDS011;23859;50.672;7.164;2022-09-09T06:11:12;4.80;;;1.42;;
38053;SDS011;23859;50.672;7.164;2022-09-09T06:13:40;4.28;;;1.92;;
38053;SDS011;23859;50.672;7.164;2022-09-09T06:16:10;5.20;;;1.80;;
38053;SDS011;23859;50.672;7.164;2022-09-09T06:18:38;8.82;;;1.67;;
38053;SDS011;23859;50.672;7.164;2022-09-09T06:21:09;6.43;;;1.40;;
38053;SDS011;23859;50.672;7.164;2022-09-09T06:23:40;5.70;;;1.52;;
38053;SDS011;23859;50.672;7.164;2022-09-09T06:26:13;9.35;;;1.90;;
38053;SDS011;23859;50.672;7.164;2022-09-09T06:28:42;6.93;;;1.25;;
38053;SDS011;23859;50.672;7.164;2022-09-09T06:31:10;7.47;;;2.40;;
38053;SDS011;23859;50.672;7.164;2022-09-09T06:33:37;6.80;;;1.38;;
38053;SDS011;23859;50.672;7.164;2022-09-09T06:36:06;4.50;;;1.27;;
38053;SDS011;23859;50.672;7.164;2022-09-09T06:38:39;6.50;;;1.45;;
38053;SDS011;23859;50.672;7.164;2022-09-09T06:41:07;5.47;;;1.17;;
38053;SDS011;23859;50.672;7.164;2022-09-09T06:43:35;4.95;;;1.08;;
38053;SDS011;23859;50.672;7.164;2022-09-09T06:48:29;5.60;;;1.33;;
38053;SDS011;23859;50.672;7.164;2022-09-09T06:51:05;6.22;;;1.20;;
38053;SDS011;23859;50.672;7.164;2022-09-09T06:53:42;6.68;;;1.63;;
38053;SDS011;23859;50.672;7.164;2022-09-09T06:58:39;2.83;;;1.10;;
38053;SDS011;23859;50.672;7.164;2022-09-09T07:01:09;5.07;;;1.13;;
38053;SDS011;23859;50.672;7.164;2022-09-09T07:03:37;5.45;;;1.17;;
38053;SDS011;23859;50.672;7.164;2022-09-09T07:06:05;5.68;;;1.45;;
38053;SDS011;23859;50.672;7.164;2022-09-09T07:08:32;2.70;;;1.10;;
38053;SDS011;23859;50.672;7.164;2022-09-09T07:11:02;5.07;;;1.40;;
38053;SDS011;23859;50.672;7.164;2022-09-09T07:13:32;8.73;;;1.30;;
38053;SDS011;23859;50.672;7.164;2022-09-09T07:16:06;6.35;;;1.33;;
38053;SDS011;23859;50.672;7.164;2022-09-09T07:18:34;4.68;;;1.20;;
38053;SDS011;23859;50.672;7.164;2022-09-09T07:21:01;3.88;;;1.50;;
38053;SDS011;23859;50.672;7.164;2022-09-09T07:23:29;4.90;;;1.40;;
38053;SDS011;23859;50.672;7.164;2022-09-09T07:25:56;7.43;;;2.50;;
38053;SDS011;23859;50.672;7.164;2022-09-09T07:28:23;6.20;;;1.35;;
38053;SDS011;23859;50.672;7.164;2022-09-09T07:31:00;4.45;;;1.63;;
38053;SDS011;23859;50.672;7.164;2022-09-09T07:33:28;4.97;;;1.42;;
38053;SDS011;23859;50.672;7.164;2022-09-09T07:36:01;8.75;;;1.60;;
38053;SDS011;23859;50.672;7.164;2022-09-09T07:38:28;5.60;;;1.30;;
38053;SDS011;23859;50.672;7.164;2022-09-09T07:41:02;5.88;;;1.42;;
38053;SDS011;23859;50.672;7.164;2022-09-09T07:43:34;9.05;;;2.53;;
38053;SDS011;23859;50.672;7.164;2022-09-09T07:46:00;12.43;;;2.55;;
38053;SDS011;23859;50.672;7.164;2022-09-09T07:48:26;4.07;;;1.30;;
38053;SDS011;23859;50.672;7.164;2022-09-09T07:51:02;6.10;;;1.38;;
38053;SDS011;23859;50.672;7.164;2022-09-09T07:53:36;5.82;;;1.20;;
38053;SDS011;23859;50.672;7.164;2022-09-09T07:56:07;5.20;;;1.10;;
38053;SDS011;23859;50.672;7.164;2022-09-09T07:58:38;6.45;;;1.48;;
38053;SDS011;23859;50.672;7.164;2022-09-09T08:01:48;9.35;;;2.10;;
38053;SDS011;23859;50.672;7.164;2022-09-09T08:04:00;9.80;;;1.83;;
38053;SDS011;23859;50.672;7.164;2022-09-09T08:06:28;7.80;;;1.55;;
38053;SDS011;23859;50.672;7.164;2022-09-09T08:08:58;7.05;;;1.35;;
38053;SDS011;23859;50.672;7.164;2022-09-09T08:11:25;3.15;;;1.40;;
38053;SDS011;23859;50.672;7.164;2022-09-09T08:13:53;9.68;;;1.27;;
38053;SDS011;23859;50.672;7.164;2022-09-09T08:16:21;11.23;;;1.15;;
38053;SDS011;23859;50.672;7.164;2022-09-09T08:18:49;5.30;;;1.50;;
38053;SDS011;23859;50.672;7.164;2022-09-09T08:21:23;6.97;;;1.23;;
38053;SDS011;23859;50.672;7.164;2022-09-09T08:23:53;5.95;;;1.65;;
38053;SDS011;23859;50.672;7.164;2022-09-09T08:26:21;3.55;;;1.05;;
38053;SDS011;23859;50.672;7.164;2022-09-09T08:28:53;2.88;;;1.17;;
38053;SDS011;23859;50.672;7.164;2022-09-09T08:31:43;7.45;;;1.25;;
38053;SDS011;23859;50.672;7.164;2022-09-09T08:34:14;7.40;;;1.30;;
38053;SDS011;23859;50.672;7.164;2022-09-09T08:36:42;4.93;;;1.23;;
38053;SDS011;23859;50.672;7.164;2022-09-09T08:39:10;6.82;;;1.08;;
38053;SDS011;23859;50.672;7.164;2022-09-09T08:44:09;4.47;;;1.00;;
38053;SDS011;23859;50.672;7.164;2022-09-09T08:46:44;5.75;;;1.30;;
38053;SDS011;23859;50.672;7.164;2022-09-09T08:52:28;7.30;;;1.30;;
38053;SDS011;23859;50.672;7.164;2022-09-09T08:55:02;3.42;;;1.25;;
38053;SDS011;23859;50.672;7.164;2022-09-09T08:57:37;2.95;;;1.10;;
38053;SDS011;23859;50.672;7.164;2022-09-09T09:00:04;5.43;;;1.00;;
38053;SDS011;23859;50.672;7.164;2022-09-09T09:10:51;4.22;;;0.77;;
38053;SDS011;23859;50.672;7.164;2022-09-09T09:16:36;4.97;;;1.02;;
38053;SDS011;23859;50.672;7.164;2022-09-09T09:19:04;4.75;;;1.00;;
38053;SDS011;23859;50.672;7.164;2022-09-09T09:21:45;5.13;;;1.10;;
38053;SDS011;23859;50.672;7.164;2022-09-09T09:24:18;5.20;;;1.10;;
38053;SDS011;23859;50.672;7.164;2022-09-09T09:26:48;4.20;;;1.52;;
38053;SDS011;23859;50.672;7.164;2022-09-09T09:29:16;3.55;;;0.90;;
38053;SDS011;23859;50.672;7.164;2022-09-09T09:31:47;4.00;;;1.40;;
38053;SDS011;23859;50.672;7.164;2022-09-09T09:34:17;5.80;;;1.10;;
38053;SDS011;23859;50.672;7.164;2022-09-09T09:36:44;2.75;;;1.00;;
38053;SDS011;23859;50.672;7.164;2022-09-09T09:39:28;3.60;;;1.10;;
38053;SDS011;23859;50.672;7.164;2022-09-09T09:41:56;6.25;;;1.63;;
38053;SDS011;23859;50.672;7.164;2022-09-09T09:47:10;3.88;;;1.20;;
38053;SDS011;23859;50.672;7.164;2022-09-09T09:49:54;4.75;;;1.30;;
38053;SDS011;23859;50.672;7.164;2022-09-09T09:52:24;3.08;;;0.93;;
38053;SDS011;23859;50.672;7.164;2022-09-09T09:54:52;7.80;;;1.80;;
38053;SDS011;23859;50.672;7.164;2022-09-09T09:57:22;5.07;;;1.05;;
38053;SDS011;23859;50.672;7.164;2022-09-09T10:00:00;5.93;;;1.25;;
38053;SDS011;23859;50.672;7.164;2022-09-09T10:02:37;8.27;;;1.50;;
38053;SDS011;23859;50.672;7.164;2022-09-09T10:07:38;2.58;;;1.05;;
38053;SDS011;23859;50.672;7.164;2022-09-09T10:10:04;4.82;;;1.23;;
38053;SDS011;23859;50.672;7.164;2022-09-09T10:17:58;4.88;;;1.10;;
38053;SDS011;23859;50.672;7.164;2022-09-09T10:29:10;4.13;;;0.95;;
38053;SDS011;23859;50.672;7.164;2022-09-09T10:34:49;3.50;;;1.33;;
38053;SDS011;23859;50.672;7.164;2022-09-09T10:37:34;5.05;;;0.82;;
38053;SDS011;23859;50.672;7.164;2022-09-09T10:40:26;3.58;;;1.30;;
38053;SDS011;23859;50.672;7.164;2022-09-09T10:43:01;3.95;;;0.80;;
38053;SDS011;23859;50.672;7.164;2022-09-09T10:45:56;5.55;;;1.13;;
38053;SDS011;23859;50.672;7.164;2022-09-09T10:48:44;3.63;;;1.65;;
38053;SDS011;23859;50.672;7.164;2022-09-09T10:51:33;4.68;;;1.25;;
38053;SDS011;23859;50.672;7.164;2022-09-09T10:54:14;3.42;;;1.08;;
38053;SDS011;23859;50.672;7.164;2022-09-09T10:56:42;6.72;;;1.05;;
38053;SDS011;23859;50.672;7.164;2022-09-09T10:59:19;4.55;;;1.15;;
38053;SDS011;23859;50.672;7.164;2022-09-09T11:01:52;4.20;;;0.97;;
38053;SDS011;23859;50.672;7.164;2022-09-09T11:04:21;1.15;;;0.55;;
38053;SDS011;23859;50.672;7.164;2022-09-09T11:06:55;4.38;;;0.80;;
38053;SDS011;23859;50.672;7.164;2022-09-09T11:09:22;2.28;;;0.73;;
38053;SDS011;23859;50.672;7.164;2022-09-09T11:11:53;3.15;;;0.98;;
38053;SDS011;23859;50.672;7.164;2022-09-09T11:14:22;8.38;;;1.50;;
38053;SDS011;23859;50.672;7.164;2022-09-09T11:17:12;4.72;;;1.02;;
38053;SDS011;23859;50.672;7.164;2022-09-09T11:19:45;4.75;;;1.00;;
38053;SDS011;23859;50.672;7.164;2022-09-09T11:22:27;3.25;;;1.20;;
38053;SDS011;23859;50.672;7.164;2022-09-09T11:25:01;4.07;;;1.05;;
38053;SDS011;23859;50.672;7.164;2022-09-09T11:27:42;2.15;;;0.88;;
38053;SDS011;23859;50.672;7.164;2022-09-09T11:41:12;2.90;;;1.20;;
38053;SDS011;23859;50.672;7.164;2022-09-09T11:43:41;5.00;;;0.60;;
38053;SDS011;23859;50.672;7.164;2022-09-09T11:46:07;3.08;;;1.08;;
38053;SDS011;23859;50.672;7.164;2022-09-09T11:48:36;2.17;;;0.88;;
38053;SDS011;23859;50.672;7.164;2022-09-09T11:51:05;1.27;;;0.68;;
38053;SDS011;23859;50.672;7.164;2022-09-09T11:53:36;2.63;;;0.90;;
38053;SDS011;23859;50.672;7.164;2022-09-09T11:56:27;2.50;;;0.73;;
38053;SDS011;23859;50.672;7.164;2022-09-09T11:58:59;4.68;;;0.90;;
38053;SDS011;23859;50.672;7.164;2022-09-09T12:01:34;3.97;;;1.05;;
38053;SDS011;23859;50.672;7.164;2022-09-09T12:06:31;3.30;;;0.95;;
38053;SDS011;23859;50.672;7.164;2022-09-09T12:09:52;2.67;;;0.70;;
38053;SDS011;23859;50.672;7.164;2022-09-09T12:12:24;2.40;;;0.90;;
38053;SDS011;23859;50.672;7.164;2022-09-09T12:15:00;1.70;;;1.33;;
38053;SDS011;23859;50.672;7.164;2022-09-09T12:17:37;2.92;;;0.90;;
38053;SDS011;23859;50.672;7.164;2022-09-09T12:28:19;1.95;;;1.00;;
38053;SDS011;23859;50.672;7.164;2022-09-09T12:30:58;3.88;;;0.95;;
38053;SDS011;23859;50.672;7.164;2022-09-09T12:33:37;6.53;;;1.10;;
38053;SDS011;23859;50.672;7.164;2022-09-09T12:36:10;1.90;;;0.80;;
38053;SDS011;23859;50.672;7.164;2022-09-09T12:38:41;4.83;;;0.87;;
38053;SDS011;23859;50.672;7.164;2022-09-09T12:41:21;4.07;;;0.95;;
38053;SDS011;23859;50.672;7.164;2022-09-09T12:43:49;2.58;;;0.90;;
38053;SDS011;23859;50.672;7.164;2022-09-09T12:49:05;4.45;;;0.80;;
38053;SDS011;23859;50.672;7.164;2022-09-09T12:51:49;1.05;;;0.70;;
38053;SDS011;23859;50.672;7.164;2022-09-09T12:54:15;3.72;;;1.13;;
38053;SDS011;23859;50.672;7.164;2022-09-09T12:56:44;6.10;;;1.27;;
38053;SDS011;23859;50.672;7.164;2022-09-09T12:59:23;3.42;;;1.13;;
38053;SDS011;23859;50.672;7.164;2022-09-09T13:01:57;2.90;;;0.80;;
38053;SDS011;23859;50.672;7.164;2022-09-09T13:04:24;10.63;;;1.50;;
38053;SDS011;23859;50.672;7.164;2022-09-09T13:06:50;5.60;;;1.20;;
38053;SDS011;23859;50.672;7.164;2022-09-09T13:09:20;4.55;;;0.80;;
38053;SDS011;23859;50.672;7.164;2022-09-09T13:11:50;3.17;;;0.88;;
38053;SDS011;23859;50.672;7.164;2022-09-09T13:14:31;2.63;;;0.70;;
38053;SDS011;23859;50.672;7.164;2022-09-09T13:17:02;4.85;;;1.10;;
38053;SDS011;23859;50.672;7.164;2022-09-09T13:19:30;4.38;;;0.88;;
38053;SDS011;23859;50.672;7.164;2022-09-09T13:22:11;6.43;;;0.82;;
38053;SDS011;23859;50.672;7.164;2022-09-09T13:24:39;2.88;;;0.90;;
38053;SDS011;23859;50.672;7.164;2022-09-09T13:27:20;2.13;;;0.60;;
38053;SDS011;23859;50.672;7.164;2022-09-09T13:29:56;4.13;;;0.90;;
38053;SDS011;23859;50.672;7.164;2022-09-09T13:32:23;2.33;;;0.90;;
38053;SDS011;23859;50.672;7.164;2022-09-09T13:34:52;1.85;;;0.70;;
38053;SDS011;23859;50.672;7.164;2022-09-09T13:37:28;2.42;;;1.00;;
38053;SDS011;23859;50.672;7.164;2022-09-09T13:40:01;3.60;;;0.85;;
38053;SDS011;23859;50.672;7.164;2022-09-09T13:42:31;7.50;;;1.02;;
38053;SDS011;23859;50.672;7.164;2022-09-09T13:45:02;5.95;;;0.90;;
38053;SDS011;23859;50.672;7.164;2022-09-09T13:49:57;5.88;;;1.05;;
38053;SDS011;23859;50.672;7.164;2022-09-09T13:52:23;3.38;;;0.77;;
38053;SDS011;23859;50.672;7.164;2022-09-09T13:54:52;2.00;;;0.63;;
38053;SDS011;23859;50.672;7.164;2022-09-09T13:57:20;2.45;;;0.70;;
38053;SDS011;23859;50.672;7.164;2022-09-09T13:59:48;3.00;;;0.57;;
38053;SDS011;23859;50.672;7.164;2022-09-09T14:02:14;4.10;;;0.80;;
38053;SDS011;23859;50.672;7.164;2022-09-09T14:04:41;3.20;;;0.70;;
38053;SDS011;23859;50.672;7.164;2022-09-09T14:07:09;4.45;;;0.88;;
38053;SDS011;23859;50.672;7.164;2022-09-09T14:09:39;3.53;;;0.52;;
38053;SDS011;23859;50.672;7.164;2022-09-09T14:12:08;1.58;;;0.57;;
38053;SDS011;23859;50.672;7.164;2022-09-09T14:14:38;4.75;;;0.63;;
38053;SDS011;23859;50.672;7.164;2022-09-09T14:17:04;2.97;;;0.90;;
38053;SDS011;23859;50.672;7.164;2022-09-09T14:19:30;0.88;;;0.40;;
38053;SDS011;23859;50.672;7.164;2022-09-09T14:21:57;1.67;;;0.65;;
38053;SDS011;23859;50.672;7.164;2022-09-09T14:24:23;2.45;;;0.40;;
38053;SDS011;23859;50.672;7.164;2022-09-09T14:26:50;1.77;;;0.80;;
38053;SDS011;23859;50.672;7.164;2022-09-09T14:29:16;3.45;;;0.70;;
38053;SDS011;23859;50.672;7.164;2022-09-09T14:31:42;1.35;;;0.45;;
38053;SDS011;23859;50.672;7.164;2022-09-09T14:34:08;3.00;;;0.50;;
38053;SDS011;23859;50.672;7.164;2022-09-09T14:36:35;2.78;;;0.57;;
38053;SDS011;23859;50.672;7.164;2022-09-09T14:39:02;0.98;;;0.60;;
38053;SDS011;23859;50.672;7.164;2022-09-09T14:41:29;1.25;;;0.60;;
38053;SDS011;23859;50.672;7.164;2022-09-09T14:43:55;7.63;;;1.52;;
38053;SDS011;23859;50.672;7.164;2022-09-09T14:46:22;1.70;;;0.57;;
38053;SDS011;23859;50.672;7.164;2022-09-09T14:48:48;0.70;;;0.43;;
38053;SDS011;23859;50.672;7.164;2022-09-09T14:51:18;2.28;;;0.60;;
38053;SDS011;23859;50.672;7.164;2022-09-09T14:53:47;3.30;;;0.50;;
38053;SDS011;23859;50.672;7.164;2022-09-09T14:56:19;1.90;;;0.80;;
38053;SDS011;23859;50.672;7.164;2022-09-09T14:58:48;2.55;;;0.68;;
38053;SDS011;23859;50.672;7.164;2022-09-09T15:01:15;1.52;;;0.52;;
38053;SDS011;23859;50.672;7.164;2022-09-09T15:03:44;4.70;;;0.80;;
38053;SDS011;23859;50.672;7.164;2022-09-09T15:06:15;4.90;;;0.95;;
38053;SDS011;23859;50.672;7.164;2022-09-09T15:08:42;1.75;;;0.63;;
38053;SDS011;23859;50.672;7.164;2022-09-09T15:11:10;3.03;;;0.80;;
38053;SDS011;23859;50.672;7.164;2022-09-09T15:13:37;1.70;;;0.90;;
38053;SDS011;23859;50.672;7.164;2022-09-09T15:16:05;3.42;;;0.88;;
38053;SDS011;23859;50.672;7.164;2022-09-09T15:18:33;3.72;;;0.68;;
38053;SDS011;23859;50.672;7.164;2022-09-09T15:21:01;1.13;;;1.02;;
38053;SDS011;23859;50.672;7.164;2022-09-09T15:23:33;4.88;;;1.00;;
38053;SDS011;23859;50.672;7.164;2022-09-09T15:26:00;1.42;;;0.80;;
38053;SDS011;23859;50.672;7.164;2022-09-09T15:28:27;1.92;;;0.60;;
38053;SDS011;23859;50.672;7.164;2022-09-09T15:30:54;1.80;;;0.60;;
38053;SDS011;23859;50.672;7.164;2022-09-09T15:33:21;3.72;;;0.80;;
38053;SDS011;23859;50.672;7.164;2022-09-09T15:35:48;2.80;;;0.65;;
38053;SDS011;23859;50.672;7.164;2022-09-09T15:38:14;1.20;;;0.60;;
38053;SDS011;23859;50.672;7.164;2022-09-09T15:40:41;3.05;;;1.00;;
38053;SDS011;23859;50.672;7.164;2022-09-09T15:43:08;1.35;;;0.70;;
38053;SDS011;23859;50.672;7.164;2022-09-09T15:45:36;5.82;;;0.88;;
38053;SDS011;23859;50.672;7.164;2022-09-09T15:48:03;1.85;;;0.70;;
38053;SDS011;23859;50.672;7.164;2022-09-09T15:50:29;2.55;;;0.55;;
38053;SDS011;23859;50.672;7.164;2022-09-09T15:52:57;3.40;;;0.65;;
38053;SDS011;23859;50.672;7.164;2022-09-09T15:55:23;1.27;;;0.50;;
38053;SDS011;23859;50.672;7.164;2022-09-09T15:57:50;1.98;;;0.70;;
38053;SDS011;23859;50.672;7.164;2022-09-09T16:00:20;1.55;;;0.60;;
38053;SDS011;23859;50.672;7.164;2022-09-09T16:02:46;6.43;;;0.88;;
38053;SDS011;23859;50.672;7.164;2022-09-09T16:05:12;4.00;;;0.93;;
38053;SDS011;23859;50.672;7.164;2022-09-09T16:07:38;3.30;;;0.70;;
38053;SDS011;23859;50.672;7.164;2022-09-09T16:10:05;4.07;;;0.70;;
38053;SDS011;23859;50.672;7.164;2022-09-09T16:12:32;1.80;;;0.82;;
38053;SDS011;23859;50.672;7.164;2022-09-09T16:14:58;4.60;;;0.75;;
38053;SDS011;23859;50.672;7.164;2022-09-09T16:17:24;2.42;;;0.80;;
38053;SDS011;23859;50.672;7.164;2022-09-09T16:19:52;3.70;;;0.80;;
38053;SDS011;23859;50.672;7.164;2022-09-09T16:22:19;1.90;;;0.52;;
38053;SDS011;23859;50.672;7.164;2022-09-09T16:24:45;4.45;;;1.00;;
38053;SDS011;23859;50.672;7.164;2022-09-09T16:27:11;2.75;;;0.80;;
38053;SDS011;23859;50.672;7.164;2022-09-09T16:29:37;5.30;;;0.88;;
38053;SDS011;23859;50.672;7.164;2022-09-09T16:32:03;4.13;;;0.90;;
38053;SDS011;23859;50.672;7.164;2022-09-09T16:34:30;3.55;;;0.98;;
38053;SDS011;23859;50.672;7.164;2022-09-09T16:36:57;1.38;;;0.70;;
38053;SDS011;23859;50.672;7.164;2022-09-09T16:39:23;2.53;;;0.90;;
38053;SDS011;23859;50.672;7.164;2022-09-09T16:41:49;4.25;;;0.77;;
38053;SDS011;23859;50.672;7.164;2022-09-09T16:44:16;3.38;;;1.17;;
38053;SDS011;23859;50.672;7.164;2022-09-09T16:46:44;3.65;;;1.00;;
38053;SDS011;23859;50.672;7.164;2022-09-09T16:49:13;3.38;;;0.90;;
38053;SDS011;23859;50.672;7.164;2022-09-09T16:51:44;2.53;;;1.00;;
38053;SDS011;23859;50.672;7.164;2022-09-09T16:56:42;4.32;;;1.30;;